createdAt,value
2023-02-06T00:01:36.438Z,1.00
2023-02-06T00:04:05.207Z,1.00
2023-02-06T00:06:35.037Z,1.00
2023-02-06T00:09:03.778Z,1.00
2023-02-06T00:11:32.025Z,1.00
2023-02-06T00:14:00.349Z,1.00
2023-02-06T00:16:30.310Z,1.00
2023-02-06T00:19:00.130Z,1.00
2023-02-06T00:21:30.601Z,1.00
2023-02-06T00:24:02.057Z,1.00
2023-02-06T00:26:31.370Z,1.00
2023-02-06T00:29:00.158Z,1.00
2023-02-06T00:31:28.748Z,1.00
2023-02-06T00:33:56.998Z,1.00
2023-02-06T00:36:25.156Z,1.00
2023-02-06T00:38:53.413Z,1.00
2023-02-06T00:41:23.219Z,1.00
2023-02-06T00:43:51.420Z,1.00
2023-02-06T00:46:19.639Z,1.00
2023-02-06T00:48:47.913Z,1.00
2023-02-06T00:51:16.270Z,1.00
2023-02-06T00:53:44.593Z,1.00
2023-02-06T00:56:12.769Z,1.00
2023-02-06T00:58:42.417Z,1.00
2023-02-06T01:01:10.743Z,1.00
2023-02-06T01:03:38.848Z,1.00
2023-02-06T01:06:07.308Z,1.00
2023-02-06T01:08:35.494Z,1.00
2023-02-06T01:11:09.832Z,1.00
2023-02-06T01:13:38.345Z,1.00
2023-02-06T01:16:10.876Z,1.00
2023-02-06T01:18:39.973Z,1.00
2023-02-06T01:21:10.334Z,1.00
2023-02-06T01:23:39.533Z,1.00
2023-02-06T01:26:08.365Z,1.00
2023-02-06T01:28:37.965Z,1.00
2023-02-06T01:31:13.158Z,1.00
2023-02-06T01:33:41.996Z,1.00
2023-02-06T01:36:10.378Z,1.00
2023-02-06T01:38:39.108Z,1.00
2023-02-06T01:41:08.460Z,1.00
2023-02-06T01:43:41.235Z,1.00
2023-02-06T01:46:10.176Z,1.00
2023-02-06T01:48:42.662Z,1.00
2023-02-06T01:51:15.074Z,1.00
2023-02-06T01:53:46.668Z,1.00
2023-02-06T01:56:19.422Z,1.00
2023-02-06T01:58:52.945Z,1.00
2023-02-06T02:01:22.402Z,1.00
2023-02-06T02:04:00.912Z,1.00
2023-02-06T02:06:29.616Z,1.00
2023-02-06T02:08:58.590Z,1.00
2023-02-06T02:11:33.226Z,1.00
2023-02-06T02:14:02.596Z,99.90
2023-02-06T02:16:43.719Z,99.90
2023-02-06T02:19:39.941Z,99.90
2023-02-06T02:22:41.343Z,11.70
2023-02-06T02:28:18.434Z,1.00
2023-02-06T02:31:10.127Z,1.00
2023-02-06T02:34:11.963Z,1.00
2023-02-06T02:36:46.433Z,1.00
2023-02-06T02:39:20.748Z,1.00
2023-02-06T02:41:57.755Z,1.00
2023-02-06T02:44:32.520Z,1.00
2023-02-06T02:47:06.328Z,1.00
2023-02-06T02:52:06.620Z,1.00
2023-02-06T02:54:34.787Z,1.00
2023-02-06T02:57:07.218Z,1.00
2023-02-06T02:59:38.625Z,93.50
2023-02-06T03:02:11.574Z,1.00
2023-02-06T03:04:43.622Z,1.00
2023-02-06T03:07:21.611Z,1.00
2023-02-06T03:12:35.799Z,1.00
2023-02-06T03:15:10.796Z,99.90
2023-02-06T03:17:45.290Z,99.90
2023-02-06T03:20:15.006Z,99.90
2023-02-06T03:22:49.082Z,99.90
2023-02-06T03:25:24.669Z,99.90
2023-02-06T03:27:55.741Z,99.90
2023-02-06T03:30:26.164Z,99.90
2023-02-06T03:32:57.983Z,99.90
2023-02-06T03:35:31.673Z,99.90
2023-02-06T03:38:01.696Z,99.90
2023-02-06T03:40:30.847Z,99.90
2023-02-06T06:14:42.912Z,99.90
2023-02-06T06:17:11.199Z,99.90
2023-02-06T06:19:39.457Z,99.90
2023-02-06T06:22:07.793Z,99.90
2023-02-06T06:24:36.388Z,99.90
2023-02-06T06:27:08.301Z,92.40
2023-02-06T06:29:36.478Z,99.90
2023-02-06T06:32:04.729Z,99.90
2023-02-06T06:34:33.301Z,99.90
2023-02-06T06:39:33.214Z,99.90
2023-02-06T06:42:01.408Z,99.90
2023-02-06T06:44:31.088Z,99.90
2023-02-06T06:46:59.732Z,99.90
2023-02-06T06:49:29.132Z,99.90
2023-02-06T06:51:57.402Z,99.90
2023-02-06T06:54:25.702Z,99.90
2023-02-06T06:56:53.971Z,99.90
2023-02-06T06:59:22.164Z,99.90
2023-02-06T07:01:52.637Z,99.90
2023-02-06T07:04:21.365Z,99.90
2023-02-06T07:06:49.798Z,99.90
2023-02-06T07:09:18.155Z,99.90
2023-02-06T07:11:46.379Z,99.90
2023-02-06T07:14:14.669Z,99.90
2023-02-06T07:16:43.075Z,99.90
2023-02-06T07:19:12.846Z,99.90
2023-02-06T07:21:41.093Z,99.90
2023-02-06T07:24:09.643Z,99.90
2023-02-06T07:26:37.874Z,99.90
2023-02-06T07:29:06.558Z,1.00
2023-02-06T07:31:35.178Z,1.00
2023-02-06T07:34:03.471Z,1.00
2023-02-06T07:36:33.190Z,1.00
2023-02-06T07:39:03.767Z,1.00
2023-02-06T07:41:32.084Z,1.00
2023-02-06T07:44:00.724Z,1.00
2023-02-06T07:46:29.428Z,1.00
2023-02-06T07:48:57.741Z,1.00
2023-02-06T07:51:26.014Z,1.00
2023-02-06T07:53:55.875Z,1.00
2023-02-06T07:56:25.270Z,1.00
2023-02-06T07:58:54.779Z,1.00
2023-02-06T08:01:23.989Z,1.00
2023-02-06T08:03:53.485Z,1.00
2023-02-06T08:06:24.468Z,1.00
2023-02-06T08:08:55.352Z,1.00
2023-02-06T08:11:28.248Z,1.00
2023-02-06T08:13:56.509Z,1.00
2023-02-06T08:18:55.257Z,65.00
2023-02-06T08:21:26.253Z,1.00
2023-02-06T08:23:59.063Z,1.00
2023-02-06T08:26:30.477Z,1.00
2023-02-06T08:29:01.795Z,1.00
2023-02-06T08:31:32.463Z,1.00
2023-02-06T08:34:01.296Z,1.00
2023-02-06T08:36:31.620Z,1.00
2023-02-06T08:39:00.585Z,1.00
2023-02-06T08:41:32.041Z,1.00
2023-02-06T08:44:01.870Z,1.00
2023-02-06T08:46:32.845Z,1.00
2023-02-06T08:49:02.428Z,1.00
2023-02-06T08:51:30.677Z,99.90
2023-02-06T10:30:05.933Z,1.00
2023-02-06T10:32:43.245Z,1.00
2023-02-06T10:35:24.005Z,1.00
2023-02-06T10:38:20.369Z,1.00
2023-02-06T10:40:52.127Z,1.00
2023-02-06T10:43:30.033Z,1.00
2023-02-06T10:46:14.281Z,1.00
2023-02-06T10:48:47.773Z,1.00
2023-02-06T10:51:21.479Z,1.00
2023-02-06T10:53:52.897Z,1.00
2023-02-06T10:56:27.150Z,1.00
2023-02-06T10:59:00.030Z,1.00
2023-02-06T11:01:33.750Z,1.00
2023-02-06T11:04:06.704Z,22.50
2023-02-06T11:06:35.544Z,1.00
2023-02-06T11:19:17.921Z,99.90
2023-02-06T11:36:56.091Z,1.00
2023-02-06T11:39:30.358Z,1.00
2023-02-06T11:42:04.069Z,1.00
2023-02-06T11:44:39.518Z,1.00
2023-02-06T11:47:29.906Z,1.00
2023-02-06T11:55:02.875Z,99.90
2023-02-06T12:00:06.800Z,1.00
2023-02-06T12:02:38.763Z,1.00
2023-02-06T12:05:15.678Z,1.00
2023-02-06T12:07:47.144Z,1.00
2023-02-06T12:10:17.456Z,1.00
2023-02-06T12:12:49.664Z,1.00
2023-02-06T12:15:44.854Z,72.10
2023-02-06T12:18:16.984Z,99.90
2023-02-06T12:20:52.343Z,1.00
2023-02-06T12:23:23.180Z,1.00
2023-02-06T12:25:55.586Z,1.00
2023-02-06T12:28:27.778Z,1.00
2023-02-06T12:30:58.903Z,1.00
2023-02-06T12:33:36.253Z,1.00
2023-02-06T12:36:12.002Z,1.00
2023-02-06T12:38:46.923Z,1.00
2023-02-06T12:41:41.700Z,1.00
2023-02-06T12:44:21.760Z,1.00
2023-02-06T12:46:56.333Z,1.00
2023-02-06T12:49:31.921Z,1.00
2023-02-06T12:52:06.064Z,1.00
2023-02-06T12:54:42.572Z,1.00
2023-02-06T12:57:17.272Z,1.00
2023-02-06T13:00:13.999Z,1.00
2023-02-06T13:03:06.712Z,1.00
2023-02-06T13:05:39.824Z,1.00
2023-02-06T13:08:12.560Z,1.00
2023-02-06T13:10:41.699Z,1.00
2023-02-06T13:13:27.495Z,1.00
2023-02-06T13:15:57.708Z,1.00
2023-02-06T13:19:03.066Z,1.00
2023-02-06T13:21:35.544Z,1.00
2023-02-06T13:24:19.344Z,99.90
2023-02-06T13:27:12.341Z,99.90
2023-02-06T13:29:42.839Z,1.00
2023-02-06T13:32:46.839Z,99.90
2023-02-06T13:35:26.784Z,99.90
2023-02-06T13:38:28.476Z,99.90
2023-02-06T13:41:32.249Z,99.90
2023-02-06T13:44:05.331Z,99.90
2023-02-06T13:47:08.737Z,99.90
2023-02-06T13:50:24.027Z,99.90
2023-02-06T13:53:07.960Z,99.90
2023-02-06T13:55:58.051Z,99.90
2023-02-06T13:58:40.577Z,99.90
2023-02-06T14:01:15.305Z,99.90
2023-02-06T14:03:49.818Z,99.90
2023-02-06T14:06:31.438Z,99.90
2023-02-06T14:09:08.915Z,99.90
2023-02-06T14:12:12.697Z,99.90
2023-02-06T14:14:53.259Z,99.90
2023-02-06T14:17:34.678Z,99.90
2023-02-06T14:20:12.288Z,99.90
2023-02-06T14:22:50.559Z,99.90
2023-02-06T14:25:33.583Z,99.90
2023-02-06T14:28:13.671Z,99.90
2023-02-06T14:30:51.804Z,99.90
2023-02-06T14:33:47.697Z,99.90
2023-02-06T14:36:33.760Z,99.90
2023-02-06T14:39:40.707Z,99.90
2023-02-06T14:42:13.934Z,99.90
2023-02-06T14:44:45.425Z,99.90
2023-02-06T14:47:19.495Z,99.90
2023-02-06T14:49:48.957Z,1.00
2023-02-06T14:52:21.115Z,1.00
2023-02-06T14:54:49.749Z,1.00
2023-02-06T14:57:22.496Z,99.90
2023-02-06T14:59:58.562Z,97.90
2023-02-06T15:02:31.483Z,45.80
2023-02-06T15:05:02.015Z,27.90
2023-02-06T15:07:33.447Z,1.00
2023-02-06T15:10:06.873Z,1.00
2023-02-06T15:12:35.999Z,1.00
2023-02-06T15:15:17.692Z,1.00
2023-02-06T15:17:57.646Z,1.00
2023-02-06T15:20:32.497Z,1.00
2023-02-06T15:23:17.294Z,1.00
2023-02-06T15:26:03.516Z,21.80
2023-02-06T15:28:34.355Z,1.00
2023-02-06T15:31:04.304Z,1.00
2023-02-06T15:33:36.036Z,1.00
2023-02-06T15:36:05.544Z,99.90
2023-02-06T15:38:35.193Z,99.90
2023-02-06T15:41:06.462Z,99.90
2023-02-06T15:43:35.638Z,99.90
2023-02-06T15:46:07.203Z,1.00
2023-02-06T15:48:40.983Z,99.90
2023-02-06T15:51:24.759Z,1.00
2023-02-06T16:06:37.509Z,1.00
2023-02-06T16:09:08.856Z,99.90
2023-02-06T16:11:47.984Z,99.90
2023-02-06T16:14:22.811Z,99.90
2023-02-06T16:17:01.054Z,99.90
2023-02-06T16:19:39.250Z,99.90
2023-02-06T16:22:16.333Z,99.90
2023-02-06T16:24:44.884Z,99.90
2023-02-06T16:27:19.468Z,99.90
2023-02-06T16:29:51.195Z,99.90
2023-02-06T16:32:24.469Z,99.90
2023-02-06T16:34:53.299Z,99.90
2023-02-06T16:37:23.845Z,99.90
2023-02-06T16:39:52.502Z,99.90
2023-02-06T16:42:23.096Z,99.90
2023-02-06T16:44:53.852Z,99.90
2023-02-06T16:47:24.329Z,99.90
2023-02-06T16:49:53.015Z,99.90
2023-02-06T16:52:25.893Z,99.90
2023-02-06T16:54:55.887Z,99.90
2023-02-06T16:57:29.327Z,99.90
2023-02-06T16:59:58.340Z,99.90
2023-02-06T17:02:29.236Z,99.90
2023-02-06T17:04:57.896Z,99.90
2023-02-06T17:07:28.590Z,99.90
2023-02-06T17:09:58.010Z,99.90
2023-02-06T17:12:26.573Z,99.90
2023-02-06T17:14:54.974Z,99.90
2023-02-06T17:17:24.440Z,99.90
2023-02-06T17:19:54.371Z,99.90
2023-02-06T17:22:22.812Z,1.00
2023-02-06T17:24:51.132Z,24.30
2023-02-06T17:27:21.798Z,99.90
2023-02-06T17:29:50.470Z,1.00
2023-02-06T17:32:22.457Z,1.00
2023-02-06T17:34:54.452Z,1.00
2023-02-06T17:37:22.803Z,99.90
2023-02-06T17:39:52.373Z,99.90
2023-02-06T17:42:22.062Z,99.90
2023-02-06T17:44:50.777Z,99.90
2023-02-06T17:47:19.430Z,99.90
2023-02-06T17:49:48.007Z,99.90
2023-02-06T17:52:18.314Z,35.30
2023-02-06T17:54:46.569Z,99.90
2023-02-06T17:57:15.098Z,99.90
2023-02-06T17:59:43.376Z,99.90
2023-02-06T18:02:14.405Z,99.90
2023-02-06T18:04:42.709Z,99.90
2023-02-06T18:07:11.076Z,99.90
2023-02-06T18:09:42.168Z,99.90
2023-02-06T18:12:10.677Z,99.90
2023-02-06T18:14:39.889Z,99.90
2023-02-06T18:17:09.305Z,99.90
2023-02-06T18:19:42.218Z,99.90
2023-02-06T18:22:11.964Z,99.90
2023-02-06T18:24:42.218Z,99.90
2023-02-06T18:27:11.280Z,99.90
2023-02-06T18:29:49.463Z,99.90
2023-02-06T18:32:18.965Z,99.90
2023-02-06T18:34:47.805Z,99.90
2023-02-06T18:37:16.268Z,99.90
2023-02-06T18:39:45.958Z,99.90
2023-02-06T18:42:31.573Z,99.90
2023-02-06T18:44:59.921Z,99.90
2023-02-06T18:47:28.201Z,99.90
2023-02-06T18:49:56.419Z,99.90
2023-02-06T18:52:24.767Z,99.90
2023-02-06T18:54:54.317Z,99.90
2023-02-06T18:57:22.534Z,99.90
2023-02-06T18:59:50.742Z,99.90
2023-02-06T19:02:19.291Z,99.90
2023-02-06T19:04:47.561Z,99.90
2023-02-06T19:07:16.718Z,1.00
2023-02-06T19:09:45.399Z,9.60
2023-02-06T19:12:15.035Z,1.00
2023-02-06T19:14:43.368Z,1.00
2023-02-06T19:17:11.818Z,99.90
2023-02-06T19:19:40.444Z,99.90
2023-02-06T19:22:08.605Z,99.90
2023-02-06T19:24:37.947Z,99.90
2023-02-06T19:27:06.320Z,99.90
2023-02-06T19:29:36.753Z,99.90
2023-02-06T19:32:06.082Z,99.90
2023-02-06T19:34:36.531Z,1.00
2023-02-06T19:37:05.274Z,46.90
2023-02-06T19:39:34.468Z,99.90
2023-02-06T19:42:04.594Z,99.90
2023-02-06T19:44:36.476Z,93.70
2023-02-06T19:47:05.358Z,1.00
2023-02-06T19:49:34.135Z,99.90
2023-02-06T19:52:02.810Z,99.90
2023-02-06T19:54:31.655Z,39.60
2023-02-06T19:57:01.297Z,99.90
2023-02-06T19:59:30.855Z,99.90
2023-02-06T20:02:02.477Z,99.90
2023-02-06T20:04:32.412Z,99.90
2023-02-06T20:07:01.151Z,1.00
2023-02-06T20:09:30.475Z,6.80
2023-02-06T20:11:59.055Z,5.70
2023-02-06T20:14:28.023Z,15.10
2023-02-06T20:16:56.379Z,18.80
2023-02-06T20:19:28.285Z,20.40
2023-02-06T20:21:58.746Z,14.70
2023-02-06T20:24:30.196Z,9.60
2023-02-06T20:27:00.887Z,2.50
2023-02-06T20:29:31.568Z,1.00
2023-02-06T20:32:00.301Z,1.00
2023-02-06T20:34:30.194Z,1.00
2023-02-06T20:36:59.316Z,1.00
2023-02-06T20:39:28.792Z,1.00
2023-02-06T20:41:57.406Z,1.00
2023-02-06T20:44:26.394Z,1.00
2023-02-06T20:46:54.937Z,1.00
2023-02-06T20:49:25.273Z,1.00
2023-02-06T20:51:55.176Z,1.00
2023-02-06T20:54:23.946Z,1.00
2023-02-06T20:56:52.652Z,1.00
2023-02-06T20:59:21.807Z,1.00
2023-02-06T21:01:50.102Z,1.00
2023-02-06T21:04:19.423Z,99.90
2023-02-06T21:06:50.113Z,99.90
2023-02-06T21:09:20.038Z,99.90
2023-02-06T21:11:50.255Z,99.90
2023-02-06T21:14:18.866Z,99.90
2023-02-06T21:16:47.772Z,99.90
2023-02-06T21:19:18.730Z,99.90
2023-02-06T21:21:47.763Z,99.90
2023-02-06T21:24:16.521Z,99.90
2023-02-06T21:26:46.150Z,99.90
2023-02-06T21:29:15.837Z,99.90
2023-02-06T21:31:44.582Z,99.90
2023-02-06T21:34:17.205Z,99.90
2023-02-06T21:36:45.846Z,99.90
2023-02-06T21:39:18.633Z,99.90
2023-02-06T21:41:51.819Z,99.90
2023-02-06T21:44:20.186Z,99.90
2023-02-06T21:46:48.389Z,99.90
2023-02-06T21:49:16.992Z,99.90
2023-02-06T21:51:45.577Z,99.90
2023-02-06T21:54:13.891Z,99.90
2023-02-06T21:56:42.336Z,99.90
2023-02-06T21:59:13.612Z,99.90
2023-02-06T22:01:41.907Z,99.90
2023-02-06T22:04:11.885Z,99.90
2023-02-06T22:06:40.417Z,99.90
2023-02-06T22:09:10.313Z,99.90
2023-02-06T22:11:40.803Z,99.90
2023-02-06T22:14:11.691Z,99.90
2023-02-06T22:16:40.062Z,99.90
2023-02-06T22:19:08.942Z,99.90
2023-02-06T22:21:37.461Z,99.90
2023-02-06T22:24:07.680Z,99.90
2023-02-06T22:26:38.898Z,99.90
2023-02-06T22:29:08.364Z,99.90
2023-02-06T22:31:40.390Z,99.90
2023-02-06T22:34:11.904Z,99.90
2023-02-06T22:36:41.671Z,99.90
2023-02-06T22:39:12.623Z,99.90
2023-02-06T22:41:41.722Z,99.90
2023-02-06T22:44:11.642Z,99.90
2023-02-06T22:46:41.497Z,99.90
2023-02-06T22:49:10.773Z,99.90
2023-02-06T22:51:40.046Z,99.90
2023-02-06T22:54:09.921Z,99.90
2023-02-06T22:56:39.720Z,99.90
2023-02-06T22:59:10.375Z,99.90
2023-02-06T23:01:42.113Z,99.90
2023-02-06T23:04:14.012Z,99.90
2023-02-06T23:06:42.977Z,99.90
2023-02-06T23:09:14.823Z,99.90
2023-02-06T23:11:43.642Z,99.90
2023-02-06T23:14:13.307Z,99.90
2023-02-06T23:16:43.148Z,99.90
2023-02-06T23:19:13.401Z,99.90
2023-02-06T23:21:43.604Z,99.90
2023-02-06T23:24:12.971Z,99.90
2023-02-06T23:26:43.583Z,99.90
2023-02-06T23:29:15.789Z,99.90
2023-02-06T23:31:45.825Z,99.90
2023-02-06T23:34:14.504Z,99.90
2023-02-06T23:36:42.824Z,99.90
2023-02-06T23:39:12.025Z,99.90
2023-02-06T23:41:40.269Z,99.90
2023-02-06T23:44:09.548Z,99.90
2023-02-06T23:46:39.219Z,99.90
2023-02-06T23:49:09.446Z,99.90
2023-02-06T23:51:39.004Z,99.90
2023-02-06T23:54:07.989Z,99.90
2023-02-06T23:56:36.752Z,99.90
2023-02-06T23:59:06.936Z,99.90
